sensor_id;sensor_type;location;lat;lon;timestamp;P1;durP1;ratioP1;P2;durP2;ratioP2
7375;SDS011;3728;42.266;24.944;2023-12-20T00:00:36;105.57;;;52.80;;
7375;SDS011;3728;42.266;24.944;2023-12-20T00:03:04;115.20;;;53.70;;
7375;SDS011;3728;42.266;24.944;2023-12-20T00:05:31;99.07;;;49.90;;
7375;SDS011;3728;42.266;24.944;2023-12-20T00:08:02;104.70;;;50.70;;
7375;SDS011;3728;42.266;24.944;2023-12-20T00:10:31;83.47;;;43.83;;
7375;SDS011;3728;42.266;24.944;2023-12-20T00:12:59;92.67;;;43.43;;
7375;SDS011;3728;42.266;24.944;2023-12-20T00:15:26;87.87;;;38.57;;
7375;SDS011;3728;42.266;24.944;2023-12-20T00:17:53;58.23;;;31.13;;
7375;SDS011;3728;42.266;24.944;2023-12-20T00:20:20;59.30;;;31.83;;
7375;SDS011;3728;42.266;24.944;2023-12-20T00:22:47;65.30;;;29.50;;
7375;SDS011;3728;42.266;24.944;2023-12-20T00:25:14;54.00;;;29.27;;
7375;SDS011;3728;42.266;24.944;2023-12-20T00:27:42;44.83;;;25.13;;
7375;SDS011;3728;42.266;24.944;2023-12-20T00:30:10;42.23;;;23.53;;
7375;SDS011;3728;42.266;24.944;2023-12-20T00:32:38;33.67;;;22.23;;
7375;SDS011;3728;42.266;24.944;2023-12-20T00:35:05;31.67;;;22.67;;
7375;SDS011;3728;42.266;24.944;2023-12-20T00:37:33;28.73;;;21.43;;
7375;SDS011;3728;42.266;24.944;2023-12-20T00:40:00;24.63;;;18.07;;
7375;SDS011;3728;42.266;24.944;2023-12-20T00:42:27;28.10;;;18.70;;
7375;SDS011;3728;42.266;24.944;2023-12-20T00:44:55;23.50;;;17.00;;
7375;SDS011;3728;42.266;24.944;2023-12-20T00:47:22;31.70;;;19.57;;
7375;SDS011;3728;42.266;24.944;2023-12-20T00:49:49;37.80;;;24.17;;
7375;SDS011;3728;42.266;24.944;2023-12-20T00:52:16;65.33;;;37.27;;
7375;SDS011;3728;42.266;24.944;2023-12-20T00:54:44;77.53;;;40.43;;
7375;SDS011;3728;42.266;24.944;2023-12-20T00:57:12;71.17;;;38.83;;
7375;SDS011;3728;42.266;24.944;2023-12-20T00:59:39;60.07;;;34.07;;
7375;SDS011;3728;42.266;24.944;2023-12-20T01:02:06;63.00;;;34.97;;
7375;SDS011;3728;42.266;24.944;2023-12-20T01:04:34;34.50;;;20.50;;
7375;SDS011;3728;42.266;24.944;2023-12-20T01:07:01;28.70;;;15.07;;
7375;SDS011;3728;42.266;24.944;2023-12-20T01:09:28;21.80;;;13.13;;
7375;SDS011;3728;42.266;24.944;2023-12-20T01:11:55;17.80;;;9.17;;
7375;SDS011;3728;42.266;24.944;2023-12-20T01:14:22;10.73;;;7.00;;
7375;SDS011;3728;42.266;24.944;2023-12-20T01:16:49;9.27;;;5.77;;
7375;SDS011;3728;42.266;24.944;2023-12-20T01:19:17;9.40;;;6.47;;
7375;SDS011;3728;42.266;24.944;2023-12-20T01:21:44;14.87;;;7.20;;
7375;SDS011;3728;42.266;24.944;2023-12-20T01:24:11;14.10;;;8.60;;
7375;SDS011;3728;42.266;24.944;2023-12-20T01:26:38;11.03;;;7.63;;
7375;SDS011;3728;42.266;24.944;2023-12-20T01:29:06;13.03;;;7.83;;
7375;SDS011;3728;42.266;24.944;2023-12-20T01:31:33;14.20;;;7.80;;
7375;SDS011;3728;42.266;24.944;2023-12-20T01:34:00;17.27;;;8.67;;
7375;SDS011;3728;42.266;24.944;2023-12-20T01:36:27;17.50;;;9.57;;
7375;SDS011;3728;42.266;24.944;2023-12-20T01:38:55;15.47;;;9.47;;
7375;SDS011;3728;42.266;24.944;2023-12-20T01:41:23;18.37;;;10.93;;
7375;SDS011;3728;42.266;24.944;2023-12-20T01:43:50;18.23;;;11.27;;
7375;SDS011;3728;42.266;24.944;2023-12-20T01:46:17;15.77;;;10.50;;
7375;SDS011;3728;42.266;24.944;2023-12-20T01:48:48;14.77;;;9.10;;
7375;SDS011;3728;42.266;24.944;2023-12-20T01:51:15;17.93;;;10.87;;
7375;SDS011;3728;42.266;24.944;2023-12-20T01:53:43;16.60;;;10.43;;
7375;SDS011;3728;42.266;24.944;2023-12-20T01:56:11;17.53;;;11.53;;
7375;SDS011;3728;42.266;24.944;2023-12-20T01:58:39;13.80;;;9.33;;
7375;SDS011;3728;42.266;24.944;2023-12-20T02:01:11;13.87;;;8.57;;
7375;SDS011;3728;42.266;24.944;2023-12-20T02:03:43;14.13;;;9.90;;
7375;SDS011;3728;42.266;24.944;2023-12-20T02:06:11;15.07;;;9.77;;
7375;SDS011;3728;42.266;24.944;2023-12-20T02:08:38;15.03;;;11.50;;
7375;SDS011;3728;42.266;24.944;2023-12-20T02:11:05;39.10;;;30.93;;
7375;SDS011;3728;42.266;24.944;2023-12-20T02:13:32;36.63;;;28.27;;
7375;SDS011;3728;42.266;24.944;2023-12-20T02:16:00;22.43;;;18.20;;
7375;SDS011;3728;42.266;24.944;2023-12-20T02:18:27;17.00;;;13.50;;
7375;SDS011;3728;42.266;24.944;2023-12-20T02:20:54;17.10;;;11.03;;
7375;SDS011;3728;42.266;24.944;2023-12-20T02:23:23;13.63;;;9.80;;
7375;SDS011;3728;42.266;24.944;2023-12-20T02:25:50;16.83;;;10.30;;
7375;SDS011;3728;42.266;24.944;2023-12-20T02:28:17;12.20;;;9.53;;
7375;SDS011;3728;42.266;24.944;2023-12-20T02:30:44;16.83;;;10.60;;
7375;SDS011;3728;42.266;24.944;2023-12-20T02:33:11;11.57;;;9.37;;
7375;SDS011;3728;42.266;24.944;2023-12-20T02:35:40;13.97;;;10.63;;
7375;SDS011;3728;42.266;24.944;2023-12-20T02:38:08;13.37;;;10.23;;
7375;SDS011;3728;42.266;24.944;2023-12-20T02:40:35;15.70;;;10.87;;
7375;SDS011;3728;42.266;24.944;2023-12-20T02:43:02;16.87;;;12.27;;
7375;SDS011;3728;42.266;24.944;2023-12-20T02:45:29;17.80;;;12.63;;
7375;SDS011;3728;42.266;24.944;2023-12-20T02:47:57;21.53;;;14.07;;
7375;SDS011;3728;42.266;24.944;2023-12-20T02:50:24;17.90;;;11.97;;
7375;SDS011;3728;42.266;24.944;2023-12-20T02:52:51;15.83;;;11.47;;
7375;SDS011;3728;42.266;24.944;2023-12-20T02:55:18;15.40;;;11.67;;
7375;SDS011;3728;42.266;24.944;2023-12-20T02:57:46;19.27;;;11.53;;
7375;SDS011;3728;42.266;24.944;2023-12-20T03:00:13;15.10;;;10.70;;
7375;SDS011;3728;42.266;24.944;2023-12-20T03:02:41;14.30;;;8.93;;
7375;SDS011;3728;42.266;24.944;2023-12-20T03:05:08;12.50;;;8.17;;
7375;SDS011;3728;42.266;24.944;2023-12-20T03:07:36;17.40;;;12.17;;
7375;SDS011;3728;42.266;24.944;2023-12-20T03:10:07;17.33;;;10.37;;
7375;SDS011;3728;42.266;24.944;2023-12-20T03:12:45;16.40;;;11.27;;
7375;SDS011;3728;42.266;24.944;2023-12-20T03:15:13;14.63;;;9.00;;
7375;SDS011;3728;42.266;24.944;2023-12-20T03:17:40;12.70;;;8.53;;
7375;SDS011;3728;42.266;24.944;2023-12-20T03:20:09;15.17;;;9.50;;
7375;SDS011;3728;42.266;24.944;2023-12-20T03:22:36;15.47;;;10.47;;
7375;SDS011;3728;42.266;24.944;2023-12-20T03:25:03;23.70;;;14.03;;
7375;SDS011;3728;42.266;24.944;2023-12-20T03:27:31;23.33;;;14.17;;
7375;SDS011;3728;42.266;24.944;2023-12-20T03:29:58;18.47;;;13.17;;
7375;SDS011;3728;42.266;24.944;2023-12-20T03:32:25;20.50;;;12.80;;
7375;SDS011;3728;42.266;24.944;2023-12-20T03:34:53;19.43;;;12.03;;
7375;SDS011;3728;42.266;24.944;2023-12-20T03:37:21;16.17;;;11.93;;
7375;SDS011;3728;42.266;24.944;2023-12-20T03:39:49;17.43;;;12.43;;
7375;SDS011;3728;42.266;24.944;2023-12-20T03:42:16;19.37;;;13.17;;
7375;SDS011;3728;42.266;24.944;2023-12-20T03:44:43;19.40;;;12.17;;
7375;SDS011;3728;42.266;24.944;2023-12-20T03:47:11;16.53;;;11.13;;
7375;SDS011;3728;42.266;24.944;2023-12-20T03:49:38;17.40;;;11.80;;
7375;SDS011;3728;42.266;24.944;2023-12-20T03:52:05;18.60;;;12.37;;
7375;SDS011;3728;42.266;24.944;2023-12-20T03:54:33;20.20;;;12.93;;
7375;SDS011;3728;42.266;24.944;2023-12-20T03:57:01;19.13;;;12.37;;
7375;SDS011;3728;42.266;24.944;2023-12-20T03:59:29;17.53;;;12.37;;
7375;SDS011;3728;42.266;24.944;2023-12-20T04:01:56;19.93;;;12.20;;
7375;SDS011;3728;42.266;24.944;2023-12-20T04:04:24;18.37;;;12.80;;
7375;SDS011;3728;42.266;24.944;2023-12-20T04:06:51;19.53;;;12.10;;
7375;SDS011;3728;42.266;24.944;2023-12-20T04:09:18;19.57;;;12.93;;
7375;SDS011;3728;42.266;24.944;2023-12-20T04:11:45;26.80;;;17.40;;
7375;SDS011;3728;42.266;24.944;2023-12-20T04:14:13;55.93;;;32.00;;
7375;SDS011;3728;42.266;24.944;2023-12-20T04:16:40;84.40;;;46.07;;
7375;SDS011;3728;42.266;24.944;2023-12-20T04:19:12;89.40;;;47.23;;
7375;SDS011;3728;42.266;24.944;2023-12-20T04:21:39;83.60;;;41.20;;
7375;SDS011;3728;42.266;24.944;2023-12-20T04:24:06;84.23;;;42.07;;
7375;SDS011;3728;42.266;24.944;2023-12-20T04:26:34;390.00;;;121.33;;
7375;SDS011;3728;42.266;24.944;2023-12-20T04:29:02;499.60;;;146.30;;
7375;SDS011;3728;42.266;24.944;2023-12-20T04:31:29;207.20;;;66.17;;
7375;SDS011;3728;42.266;24.944;2023-12-20T04:33:56;95.50;;;42.90;;
7375;SDS011;3728;42.266;24.944;2023-12-20T04:36:23;53.43;;;30.50;;
7375;SDS011;3728;42.266;24.944;2023-12-20T04:38:53;83.57;;;37.90;;
7375;SDS011;3728;42.266;24.944;2023-12-20T04:41:20;60.63;;;38.80;;
7375;SDS011;3728;42.266;24.944;2023-12-20T04:43:48;53.87;;;38.73;;
7375;SDS011;3728;42.266;24.944;2023-12-20T04:46:15;46.63;;;34.43;;
7375;SDS011;3728;42.266;24.944;2023-12-20T04:48:42;77.23;;;40.43;;
7375;SDS011;3728;42.266;24.944;2023-12-20T04:51:10;124.17;;;54.37;;
7375;SDS011;3728;42.266;24.944;2023-12-20T04:53:40;52.40;;;27.50;;
7375;SDS011;3728;42.266;24.944;2023-12-20T04:56:07;42.63;;;26.40;;
7375;SDS011;3728;42.266;24.944;2023-12-20T04:58:34;41.83;;;24.47;;
7375;SDS011;3728;42.266;24.944;2023-12-20T05:01:01;33.50;;;20.30;;
7375;SDS011;3728;42.266;24.944;2023-12-20T05:03:29;30.13;;;19.13;;
7375;SDS011;3728;42.266;24.944;2023-12-20T05:05:56;23.67;;;15.77;;
7375;SDS011;3728;42.266;24.944;2023-12-20T05:08:24;31.47;;;18.20;;
7375;SDS011;3728;42.266;24.944;2023-12-20T05:10:53;26.33;;;17.47;;
7375;SDS011;3728;42.266;24.944;2023-12-20T05:13:21;32.73;;;20.40;;
7375;SDS011;3728;42.266;24.944;2023-12-20T05:16:07;23.83;;;15.20;;
7375;SDS011;3728;42.266;24.944;2023-12-20T05:18:35;25.80;;;16.30;;
7375;SDS011;3728;42.266;24.944;2023-12-20T05:21:02;24.10;;;14.63;;
7375;SDS011;3728;42.266;24.944;2023-12-20T05:23:30;21.93;;;14.70;;
7375;SDS011;3728;42.266;24.944;2023-12-20T05:26:01;20.60;;;14.00;;
7375;SDS011;3728;42.266;24.944;2023-12-20T05:28:28;28.27;;;15.43;;
7375;SDS011;3728;42.266;24.944;2023-12-20T05:30:55;25.03;;;16.17;;
7375;SDS011;3728;42.266;24.944;2023-12-20T05:33:23;28.33;;;17.43;;
7375;SDS011;3728;42.266;24.944;2023-12-20T05:35:50;29.50;;;18.87;;
7375;SDS011;3728;42.266;24.944;2023-12-20T05:38:17;32.17;;;18.97;;
7375;SDS011;3728;42.266;24.944;2023-12-20T05:40:46;37.03;;;21.47;;
7375;SDS011;3728;42.266;24.944;2023-12-20T05:43:13;34.73;;;20.37;;
7375;SDS011;3728;42.266;24.944;2023-12-20T05:45:40;37.77;;;23.03;;
7375;SDS011;3728;42.266;24.944;2023-12-20T05:48:08;43.10;;;22.40;;
7375;SDS011;3728;42.266;24.944;2023-12-20T05:50:36;55.20;;;26.33;;
7375;SDS011;3728;42.266;24.944;2023-12-20T05:53:03;115.77;;;45.00;;
7375;SDS011;3728;42.266;24.944;2023-12-20T05:55:31;131.23;;;39.60;;
7375;SDS011;3728;42.266;24.944;2023-12-20T05:57:59;133.07;;;48.53;;
7375;SDS011;3728;42.266;24.944;2023-12-20T06:00:27;137.03;;;47.43;;
7375;SDS011;3728;42.266;24.944;2023-12-20T06:02:55;145.77;;;59.63;;
7375;SDS011;3728;42.266;24.944;2023-12-20T06:05:23;175.27;;;67.53;;
7375;SDS011;3728;42.266;24.944;2023-12-20T06:07:51;137.20;;;54.67;;
7375;SDS011;3728;42.266;24.944;2023-12-20T06:10:19;142.77;;;52.43;;
7375;SDS011;3728;42.266;24.944;2023-12-20T06:12:46;188.83;;;59.60;;
7375;SDS011;3728;42.266;24.944;2023-12-20T06:15:16;159.27;;;59.73;;
7375;SDS011;3728;42.266;24.944;2023-12-20T06:17:43;174.57;;;59.30;;
7375;SDS011;3728;42.266;24.944;2023-12-20T06:20:11;170.97;;;58.70;;
7375;SDS011;3728;42.266;24.944;2023-12-20T06:22:39;143.97;;;54.77;;
7375;SDS011;3728;42.266;24.944;2023-12-20T06:25:07;138.37;;;54.37;;
7375;SDS011;3728;42.266;24.944;2023-12-20T06:27:36;143.23;;;56.27;;
7375;SDS011;3728;42.266;24.944;2023-12-20T06:30:04;136.73;;;53.73;;
7375;SDS011;3728;42.266;24.944;2023-12-20T06:32:32;125.93;;;50.83;;
7375;SDS011;3728;42.266;24.944;2023-12-20T06:35:01;119.57;;;48.63;;
7375;SDS011;3728;42.266;24.944;2023-12-20T06:37:28;127.53;;;51.90;;
7375;SDS011;3728;42.266;24.944;2023-12-20T06:39:57;127.33;;;50.00;;
7375;SDS011;3728;42.266;24.944;2023-12-20T06:42:26;118.50;;;46.57;;
7375;SDS011;3728;42.266;24.944;2023-12-20T06:44:56;127.57;;;51.17;;
7375;SDS011;3728;42.266;24.944;2023-12-20T06:47:23;125.93;;;54.77;;
7375;SDS011;3728;42.266;24.944;2023-12-20T06:49:51;129.53;;;53.93;;
7375;SDS011;3728;42.266;24.944;2023-12-20T06:52:19;101.77;;;52.07;;
7375;SDS011;3728;42.266;24.944;2023-12-20T06:54:46;119.53;;;58.50;;
7375;SDS011;3728;42.266;24.944;2023-12-20T06:57:13;194.27;;;84.63;;
7375;SDS011;3728;42.266;24.944;2023-12-20T06:59:41;137.60;;;61.07;;
7375;SDS011;3728;42.266;24.944;2023-12-20T07:02:08;140.90;;;65.47;;
7375;SDS011;3728;42.266;24.944;2023-12-20T07:04:41;111.37;;;54.03;;
7375;SDS011;3728;42.266;24.944;2023-12-20T07:07:09;68.93;;;39.87;;
7375;SDS011;3728;42.266;24.944;2023-12-20T07:09:38;87.20;;;42.30;;
7375;SDS011;3728;42.266;24.944;2023-12-20T07:12:05;65.13;;;37.23;;
7375;SDS011;3728;42.266;24.944;2023-12-20T07:14:33;35.30;;;18.67;;
7375;SDS011;3728;42.266;24.944;2023-12-20T07:17:00;35.03;;;18.20;;
7375;SDS011;3728;42.266;24.944;2023-12-20T07:19:27;40.63;;;18.50;;
7375;SDS011;3728;42.266;24.944;2023-12-20T07:21:55;51.13;;;23.90;;
7375;SDS011;3728;42.266;24.944;2023-12-20T07:24:22;69.70;;;27.23;;
7375;SDS011;3728;42.266;24.944;2023-12-20T07:26:50;58.60;;;25.93;;
7375;SDS011;3728;42.266;24.944;2023-12-20T07:29:18;50.27;;;27.90;;
7375;SDS011;3728;42.266;24.944;2023-12-20T07:31:47;56.97;;;28.93;;
7375;SDS011;3728;42.266;24.944;2023-12-20T07:34:22;51.30;;;27.93;;
7375;SDS011;3728;42.266;24.944;2023-12-20T07:36:54;40.63;;;25.67;;
7375;SDS011;3728;42.266;24.944;2023-12-20T07:39:22;34.87;;;18.67;;
7375;SDS011;3728;42.266;24.944;2023-12-20T07:41:51;26.43;;;17.10;;
7375;SDS011;3728;42.266;24.944;2023-12-20T07:44:18;27.80;;;19.10;;
7375;SDS011;3728;42.266;24.944;2023-12-20T07:46:45;37.73;;;21.07;;
7375;SDS011;3728;42.266;24.944;2023-12-20T07:49:12;28.67;;;19.10;;
7375;SDS011;3728;42.266;24.944;2023-12-20T07:51:40;32.40;;;20.63;;
7375;SDS011;3728;42.266;24.944;2023-12-20T07:54:07;22.60;;;15.60;;
7375;SDS011;3728;42.266;24.944;2023-12-20T07:56:34;20.67;;;14.97;;
7375;SDS011;3728;42.266;24.944;2023-12-20T07:59:03;21.17;;;15.40;;
7375;SDS011;3728;42.266;24.944;2023-12-20T08:01:34;26.43;;;15.67;;
7375;SDS011;3728;42.266;24.944;2023-12-20T08:04:02;23.23;;;14.70;;
7375;SDS011;3728;42.266;24.944;2023-12-20T08:06:30;20.63;;;14.13;;
7375;SDS011;3728;42.266;24.944;2023-12-20T08:08:59;16.20;;;13.07;;
7375;SDS011;3728;42.266;24.944;2023-12-20T08:11:32;15.63;;;11.40;;
7375;SDS011;3728;42.266;24.944;2023-12-20T08:13:59;20.17;;;10.63;;
7375;SDS011;3728;42.266;24.944;2023-12-20T08:16:27;13.70;;;10.40;;
7375;SDS011;3728;42.266;24.944;2023-12-20T08:18:55;12.63;;;9.53;;
7375;SDS011;3728;42.266;24.944;2023-12-20T08:21:25;12.83;;;9.07;;
7375;SDS011;3728;42.266;24.944;2023-12-20T08:23:52;13.00;;;9.47;;
7375;SDS011;3728;42.266;24.944;2023-12-20T08:26:20;13.67;;;10.73;;
7375;SDS011;3728;42.266;24.944;2023-12-20T08:28:48;13.97;;;9.53;;
7375;SDS011;3728;42.266;24.944;2023-12-20T08:31:16;13.87;;;10.17;;
7375;SDS011;3728;42.266;24.944;2023-12-20T08:33:45;13.53;;;9.43;;
7375;SDS011;3728;42.266;24.944;2023-12-20T08:36:17;15.67;;;9.00;;
7375;SDS011;3728;42.266;24.944;2023-12-20T08:38:46;12.37;;;9.63;;
7375;SDS011;3728;42.266;24.944;2023-12-20T08:41:15;15.40;;;9.80;;
7375;SDS011;3728;42.266;24.944;2023-12-20T08:43:44;12.83;;;9.53;;
7375;SDS011;3728;42.266;24.944;2023-12-20T08:46:13;15.93;;;11.80;;
7375;SDS011;3728;42.266;24.944;2023-12-20T08:48:41;16.50;;;11.37;;
7375;SDS011;3728;42.266;24.944;2023-12-20T08:51:10;14.23;;;9.77;;
7375;SDS011;3728;42.266;24.944;2023-12-20T08:53:40;11.83;;;9.00;;
7375;SDS011;3728;42.266;24.944;2023-12-20T08:56:08;12.93;;;9.60;;
7375;SDS011;3728;42.266;24.944;2023-12-20T08:58:35;12.20;;;8.73;;
7375;SDS011;3728;42.266;24.944;2023-12-20T09:01:03;12.53;;;8.63;;
7375;SDS011;3728;42.266;24.944;2023-12-20T09:03:30;11.60;;;9.43;;
7375;SDS011;3728;42.266;24.944;2023-12-20T09:05:58;13.07;;;9.80;;
7375;SDS011;3728;42.266;24.944;2023-12-20T09:08:25;13.10;;;9.47;;
7375;SDS011;3728;42.266;24.944;2023-12-20T09:10:52;12.10;;;9.17;;
7375;SDS011;3728;42.266;24.944;2023-12-20T09:13:19;13.10;;;10.10;;
7375;SDS011;3728;42.266;24.944;2023-12-20T09:15:48;12.47;;;9.43;;
7375;SDS011;3728;42.266;24.944;2023-12-20T09:18:15;13.87;;;9.37;;
7375;SDS011;3728;42.266;24.944;2023-12-20T09:20:43;13.90;;;9.80;;
7375;SDS011;3728;42.266;24.944;2023-12-20T09:23:14;15.40;;;10.10;;
7375;SDS011;3728;42.266;24.944;2023-12-20T09:25:41;10.80;;;9.63;;
7375;SDS011;3728;42.266;24.944;2023-12-20T09:28:09;12.10;;;9.67;;
7375;SDS011;3728;42.266;24.944;2023-12-20T09:30:37;17.90;;;11.20;;
7375;SDS011;3728;42.266;24.944;2023-12-20T09:33:07;14.60;;;10.33;;
7375;SDS011;3728;42.266;24.944;2023-12-20T09:35:35;16.47;;;10.87;;
7375;SDS011;3728;42.266;24.944;2023-12-20T09:38:03;15.00;;;10.67;;
7375;SDS011;3728;42.266;24.944;2023-12-20T09:40:31;13.20;;;10.53;;
7375;SDS011;3728;42.266;24.944;2023-12-20T09:43:03;17.10;;;11.20;;
7375;SDS011;3728;42.266;24.944;2023-12-20T09:45:32;15.07;;;11.63;;
7375;SDS011;3728;42.266;24.944;2023-12-20T09:47:59;14.73;;;11.43;;
7375;SDS011;3728;42.266;24.944;2023-12-20T09:50:27;15.27;;;12.17;;
7375;SDS011;3728;42.266;24.944;2023-12-20T09:52:57;15.33;;;11.73;;
7375;SDS011;3728;42.266;24.944;2023-12-20T09:55:26;17.37;;;12.50;;
7375;SDS011;3728;42.266;24.944;2023-12-20T09:57:57;14.83;;;12.13;;
7375;SDS011;3728;42.266;24.944;2023-12-20T10:00:25;13.80;;;11.60;;
7375;SDS011;3728;42.266;24.944;2023-12-20T10:02:57;19.20;;;11.73;;
7375;SDS011;3728;42.266;24.944;2023-12-20T10:05:28;18.90;;;11.50;;
7375;SDS011;3728;42.266;24.944;2023-12-20T10:08:00;12.53;;;8.97;;
7375;SDS011;3728;42.266;24.944;2023-12-20T10:10:30;12.07;;;10.03;;
7375;SDS011;3728;42.266;24.944;2023-12-20T10:13:11;14.40;;;10.03;;
7375;SDS011;3728;42.266;24.944;2023-12-20T10:15:41;14.53;;;10.47;;
7375;SDS011;3728;42.266;24.944;2023-12-20T10:18:11;14.47;;;10.40;;
7375;SDS011;3728;42.266;24.944;2023-12-20T10:20:40;13.30;;;10.20;;
7375;SDS011;3728;42.266;24.944;2023-12-20T10:23:13;11.63;;;9.73;;
7375;SDS011;3728;42.266;24.944;2023-12-20T10:25:49;14.17;;;10.27;;
7375;SDS011;3728;42.266;24.944;2023-12-20T10:28:32;12.03;;;10.17;;
7375;SDS011;3728;42.266;24.944;2023-12-20T10:31:03;13.47;;;9.97;;
7375;SDS011;3728;42.266;24.944;2023-12-20T10:33:32;13.20;;;10.40;;
7375;SDS011;3728;42.266;24.944;2023-12-20T10:35:59;14.23;;;10.43;;
7375;SDS011;3728;42.266;24.944;2023-12-20T10:38:31;20.10;;;12.43;;
7375;SDS011;3728;42.266;24.944;2023-12-20T10:41:00;17.20;;;12.23;;
7375;SDS011;3728;42.266;24.944;2023-12-20T10:43:30;17.70;;;10.60;;
7375;SDS011;3728;42.266;24.944;2023-12-20T10:46:02;12.10;;;10.23;;
7375;SDS011;3728;42.266;24.944;2023-12-20T10:48:30;15.63;;;10.10;;
7375;SDS011;3728;42.266;24.944;2023-12-20T10:50:59;17.63;;;11.47;;
7375;SDS011;3728;42.266;24.944;2023-12-20T10:53:29;12.77;;;10.83;;
7375;SDS011;3728;42.266;24.944;2023-12-20T10:56:02;12.27;;;10.30;;
7375;SDS011;3728;42.266;24.944;2023-12-20T10:58:30;14.57;;;11.10;;
7375;SDS011;3728;42.266;24.944;2023-12-20T11:01:03;19.50;;;12.57;;
7375;SDS011;3728;42.266;24.944;2023-12-20T11:03:35;15.77;;;10.60;;
7375;SDS011;3728;42.266;24.944;2023-12-20T11:06:16;12.50;;;10.77;;
7375;SDS011;3728;42.266;24.944;2023-12-20T11:11:42;16.63;;;13.40;;
7375;SDS011;3728;42.266;24.944;2023-12-20T11:15:08;20.07;;;13.13;;
7375;SDS011;3728;42.266;24.944;2023-12-20T11:17:35;13.00;;;10.77;;
7375;SDS011;3728;42.266;24.944;2023-12-20T11:20:18;13.40;;;11.50;;
7375;SDS011;3728;42.266;24.944;2023-12-20T11:22:52;12.63;;;10.77;;
7375;SDS011;3728;42.266;24.944;2023-12-20T11:25:22;14.07;;;11.00;;
7375;SDS011;3728;42.266;24.944;2023-12-20T11:28:10;12.93;;;10.83;;
7375;SDS011;3728;42.266;24.944;2023-12-20T11:33:16;13.73;;;11.00;;
7375;SDS011;3728;42.266;24.944;2023-12-20T11:35:57;14.40;;;10.43;;
7375;SDS011;3728;42.266;24.944;2023-12-20T11:38:26;13.00;;;11.23;;
7375;SDS011;3728;42.266;24.944;2023-12-20T11:40:54;16.87;;;12.13;;
7375;SDS011;3728;42.266;24.944;2023-12-20T11:43:32;19.87;;;14.03;;
7375;SDS011;3728;42.266;24.944;2023-12-20T11:46:07;18.10;;;13.23;;
7375;SDS011;3728;42.266;24.944;2023-12-20T11:48:39;22.37;;;13.40;;
7375;SDS011;3728;42.266;24.944;2023-12-20T11:51:27;17.47;;;13.27;;
7375;SDS011;3728;42.266;24.944;2023-12-20T11:53:55;15.53;;;12.70;;
7375;SDS011;3728;42.266;24.944;2023-12-20T11:56:22;18.43;;;14.60;;
7375;SDS011;3728;42.266;24.944;2023-12-20T11:58:50;14.53;;;12.50;;
7375;SDS011;3728;42.266;24.944;2023-12-20T12:01:19;16.03;;;13.00;;
7375;SDS011;3728;42.266;24.944;2023-12-20T12:03:47;18.10;;;13.63;;
7375;SDS011;3728;42.266;24.944;2023-12-20T12:06:15;13.37;;;11.67;;
7375;SDS011;3728;42.266;24.944;2023-12-20T12:08:45;16.70;;;12.50;;
7375;SDS011;3728;42.266;24.944;2023-12-20T12:11:15;18.40;;;12.30;;
7375;SDS011;3728;42.266;24.944;2023-12-20T12:13:43;18.33;;;12.50;;
7375;SDS011;3728;42.266;24.944;2023-12-20T12:16:16;17.00;;;11.73;;
7375;SDS011;3728;42.266;24.944;2023-12-20T12:18:45;17.27;;;11.40;;
7375;SDS011;3728;42.266;24.944;2023-12-20T12:21:19;15.63;;;11.80;;
7375;SDS011;3728;42.266;24.944;2023-12-20T12:24:19;13.70;;;11.90;;
7375;SDS011;3728;42.266;24.944;2023-12-20T12:26:51;18.93;;;12.33;;
7375;SDS011;3728;42.266;24.944;2023-12-20T12:29:18;18.23;;;11.73;;
7375;SDS011;3728;42.266;24.944;2023-12-20T12:31:45;24.87;;;11.27;;
7375;SDS011;3728;42.266;24.944;2023-12-20T12:34:13;15.97;;;11.37;;
7375;SDS011;3728;42.266;24.944;2023-12-20T12:36:44;21.37;;;11.37;;
7375;SDS011;3728;42.266;24.944;2023-12-20T12:39:14;23.00;;;13.53;;
7375;SDS011;3728;42.266;24.944;2023-12-20T12:41:44;23.87;;;13.97;;
7375;SDS011;3728;42.266;24.944;2023-12-20T12:44:11;15.23;;;11.93;;
7375;SDS011;3728;42.266;24.944;2023-12-20T12:46:44;21.40;;;13.80;;
7375;SDS011;3728;42.266;24.944;2023-12-20T12:49:20;23.77;;;13.37;;
7375;SDS011;3728;42.266;24.944;2023-12-20T12:51:50;25.40;;;12.30;;
7375;SDS011;3728;42.266;24.944;2023-12-20T12:54:21;15.03;;;12.03;;
7375;SDS011;3728;42.266;24.944;2023-12-20T12:56:52;14.50;;;11.07;;
7375;SDS011;3728;42.266;24.944;2023-12-20T12:59:23;19.03;;;12.47;;
7375;SDS011;3728;42.266;24.944;2023-12-20T13:02:12;14.77;;;11.40;;
7375;SDS011;3728;42.266;24.944;2023-12-20T13:04:43;18.03;;;14.53;;
7375;SDS011;3728;42.266;24.944;2023-12-20T13:07:10;13.30;;;11.90;;
7375;SDS011;3728;42.266;24.944;2023-12-20T13:09:39;17.93;;;12.60;;
7375;SDS011;3728;42.266;24.944;2023-12-20T13:12:06;15.60;;;12.03;;
7375;SDS011;3728;42.266;24.944;2023-12-20T13:14:37;16.57;;;12.43;;
7375;SDS011;3728;42.266;24.944;2023-12-20T13:17:04;19.40;;;12.40;;
7375;SDS011;3728;42.266;24.944;2023-12-20T13:19:34;16.23;;;12.23;;
7375;SDS011;3728;42.266;24.944;2023-12-20T13:22:02;15.17;;;12.00;;
7375;SDS011;3728;42.266;24.944;2023-12-20T13:24:30;19.00;;;12.87;;
7375;SDS011;3728;42.266;24.944;2023-12-20T13:27:02;18.97;;;15.50;;
7375;SDS011;3728;42.266;24.944;2023-12-20T13:29:29;19.90;;;14.73;;
7375;SDS011;3728;42.266;24.944;2023-12-20T13:31:57;23.40;;;14.83;;
7375;SDS011;3728;42.266;24.944;2023-12-20T13:34:24;20.27;;;15.67;;
7375;SDS011;3728;42.266;24.944;2023-12-20T13:36:52;22.37;;;15.70;;
7375;SDS011;3728;42.266;24.944;2023-12-20T13:39:21;23.87;;;16.50;;
7375;SDS011;3728;42.266;24.944;2023-12-20T13:41:48;22.03;;;16.23;;
7375;SDS011;3728;42.266;24.944;2023-12-20T13:44:16;20.53;;;16.37;;
7375;SDS011;3728;42.266;24.944;2023-12-20T13:46:43;21.67;;;16.00;;
7375;SDS011;3728;42.266;24.944;2023-12-20T13:49:11;23.73;;;18.77;;
7375;SDS011;3728;42.266;24.944;2023-12-20T13:51:39;34.43;;;22.63;;
7375;SDS011;3728;42.266;24.944;2023-12-20T13:54:06;32.33;;;20.10;;
7375;SDS011;3728;42.266;24.944;2023-12-20T13:56:37;32.13;;;20.93;;
7375;SDS011;3728;42.266;24.944;2023-12-20T13:59:21;27.80;;;18.13;;
7375;SDS011;3728;42.266;24.944;2023-12-20T14:01:48;23.27;;;18.37;;
7375;SDS011;3728;42.266;24.944;2023-12-20T14:04:17;22.37;;;17.50;;
7375;SDS011;3728;42.266;24.944;2023-12-20T14:07:04;23.97;;;18.30;;
7375;SDS011;3728;42.266;24.944;2023-12-20T14:09:34;27.60;;;18.03;;
7375;SDS011;3728;42.266;24.944;2023-12-20T14:12:04;27.00;;;17.70;;
7375;SDS011;3728;42.266;24.944;2023-12-20T14:14:32;31.50;;;22.13;;
7375;SDS011;3728;42.266;24.944;2023-12-20T14:17:02;30.13;;;21.03;;
7375;SDS011;3728;42.266;24.944;2023-12-20T14:19:32;36.80;;;22.43;;
7375;SDS011;3728;42.266;24.944;2023-12-20T14:22:00;32.03;;;23.43;;
7375;SDS011;3728;42.266;24.944;2023-12-20T14:24:28;51.17;;;36.43;;
7375;SDS011;3728;42.266;24.944;2023-12-20T14:26:55;49.43;;;35.10;;
7375;SDS011;3728;42.266;24.944;2023-12-20T14:29:23;48.33;;;36.53;;
7375;SDS011;3728;42.266;24.944;2023-12-20T14:31:52;44.17;;;32.10;;
7375;SDS011;3728;42.266;24.944;2023-12-20T14:34:20;37.60;;;28.63;;
7375;SDS011;3728;42.266;24.944;2023-12-20T14:36:47;38.20;;;25.90;;
7375;SDS011;3728;42.266;24.944;2023-12-20T14:39:14;36.53;;;27.03;;
7375;SDS011;3728;42.266;24.944;2023-12-20T14:41:44;38.57;;;28.07;;
7375;SDS011;3728;42.266;24.944;2023-12-20T14:44:11;40.13;;;26.67;;
7375;SDS011;3728;42.266;24.944;2023-12-20T14:46:39;38.07;;;26.97;;
7375;SDS011;3728;42.266;24.944;2023-12-20T14:49:08;46.23;;;30.27;;
7375;SDS011;3728;42.266;24.944;2023-12-20T14:51:38;52.80;;;32.97;;